Time;durP1;ratioP1;P1;durP2;ratioP2;P2;SDS_P1;SDS_P2;PMS_P1;PMS_P2;Temp;Humidity;BMP_temperature;BMP_pressure;BME280_temperature;BME280_humidity;BME280_pressure;Samples;Min_cycle;Max_cycle;Signal;HPM_P1;HPM_P2
2022/08/17 00:00:13;;;;;;;7.53;6.15;;;;;;;28.50;45.58;100651.94;5014376;28;20026;-59
2022/08/17 00:03:14;;;;;;;9.13;6.72;;;;;;;28.48;46.28;100651.34;5014418;28;20049;-59
2022/08/17 00:05:45;;;;;;;9.55;6.05;;;;;;;28.47;46.39;100641.44;5005849;28;20045;-59
2022/08/17 00:08:13;;;;;;;8.23;6.13;;;;;;;28.48;46.57;100643.06;5012989;28;20036;-59
2022/08/17 00:10:39;;;;;;;9.57;6.78;;;;;;;28.47;45.95;100646.94;5014497;28;20391;-59
2022/08/17 00:13:14;;;;;;;8.25;6.70;;;;;;;28.48;46.95;100643.06;5014263;28;20088;-59
2022/08/17 00:15:39;;;;;;;10.63;7.32;;;;;;;28.43;46.68;100637.50;5014112;28;20053;-59
2022/08/17 00:18:05;;;;;;;10.15;7.15;;;;;;;28.45;46.01;100629.81;5013881;28;20514;-59
2022/08/17 00:20:30;;;;;;;9.45;6.35;;;;;;;28.45;46.49;100630.63;5014085;28;20064;-59
2022/08/17 00:23:22;;;;;;;10.02;6.75;;;;;;;28.45;47.01;100629.81;5014423;28;20105;-59
2022/08/17 00:25:47;;;;;;;10.07;7.35;;;;;;;28.44;46.20;100630.91;5012738;28;20034;-59
2022/08/17 00:28:14;;;;;;;11.05;7.70;;;;;;;28.41;46.88;100625.88;5013879;28;20029;-59
2022/08/17 00:30:44;;;;;;;10.38;7.38;;;;;;;28.36;46.62;100618.38;5013841;28;20092;-59
2022/08/17 00:33:12;;;;;;;12.57;8.15;;;;;;;28.36;46.50;100614.78;5013703;28;20044;-60
2022/08/17 00:35:38;;;;;;;12.38;8.13;;;;;;;28.34;46.77;100619.72;5012788;28;20165;-59
2022/08/17 00:38:08;;;;;;;15.30;9.00;;;;;;;28.33;46.13;100618.03;5013834;28;20032;-60
2022/08/17 00:40:35;;;;;;;16.08;7.90;;;;;;;28.26;46.64;100618.19;5012415;28;20109;-59
2022/08/17 00:43:41;;;;;;;12.18;7.32;;;;;;;28.26;46.17;100627.31;5013935;28;20102;-59
2022/08/17 00:46:21;;;;;;;9.23;7.20;;;;;;;28.24;46.09;100620.38;4991978;28;20030;-59
2022/08/17 00:48:47;;;;;;;10.50;8.00;;;;;;;28.20;47.16;100625.53;4992007;28;20030;-59
2022/08/17 00:51:21;;;;;;;12.13;7.95;;;;;;;28.18;46.10;100616.69;4991997;28;20038;-59
2022/08/17 00:53:50;;;;;;;11.02;8.02;;;;;;;28.16;46.57;100629.06;4991844;28;20038;-59
2022/08/17 00:56:22;;;;;;;14.27;8.40;;;;;;;28.11;46.75;100616.00;4991967;28;20034;-59
2022/08/17 00:58:50;;;;;;;13.32;8.05;;;;;;;28.11;46.53;100621.53;4991868;28;20088;-59
2022/08/17 01:01:16;;;;;;;11.40;8.75;;;;;;;28.09;47.24;100618.19;4991744;28;20054;-59
2022/08/17 01:03:42;;;;;;;11.98;8.25;;;;;;;28.07;46.11;100609.34;4991655;28;20043;-59
2022/08/17 01:06:08;;;;;;;12.52;8.18;;;;;;;27.96;46.50;100601.97;4975392;28;20042;-59
2022/08/17 01:08:35;;;;;;;13.23;8.95;;;;;;;28.01;46.43;100602.03;4975691;28;20542;-59
2022/08/17 01:11:01;;;;;;;17.58;9.93;;;;;;;27.99;47.10;100601.47;4959433;28;20034;-59
2022/08/17 01:13:28;;;;;;;13.48;9.27;;;;;;;27.94;46.65;100587.63;4991778;28;20492;-59
2022/08/17 01:16:19;;;;;;;14.77;9.85;;;;;;;27.94;47.21;100598.63;4975444;28;20085;-59
2022/08/17 01:18:47;;;;;;;12.65;9.85;;;;;;;27.92;46.51;100589.75;4972308;28;20534;-59
2022/08/17 01:21:21;;;;;;;12.23;9.18;;;;;;;27.91;47.09;100593.63;5012836;28;20088;-59
2022/08/17 01:23:47;;;;;;;15.48;9.32;;;;;;;27.88;47.08;100594.09;5013277;28;20037;-59
2022/08/17 01:26:13;;;;;;;9.60;7.43;;;;;;;27.86;47.58;100590.78;5012366;28;20030;-59
2022/08/17 01:28:38;;;;;;;11.57;8.30;;;;;;;27.85;47.61;100591.00;5013407;28;20453;-59
2022/08/17 01:31:06;;;;;;;16.33;8.80;;;;;;;27.80;47.08;100586.25;5012080;28;20113;-60
2022/08/17 01:33:31;;;;;;;18.40;9.82;;;;;;;27.79;47.40;100584.56;5012003;28;20513;-59
2022/08/17 01:35:59;;;;;;;10.30;7.95;;;;;;;27.76;46.83;100579.56;5013499;28;20034;-59
2022/08/17 01:38:30;;;;;;;12.88;8.15;;;;;;;27.74;47.43;100576.22;5013141;28;20080;-59
2022/08/17 01:40:59;;;;;;;12.15;9.00;;;;;;;27.68;47.22;100580.81;5013161;28;20403;-59
2022/08/17 01:43:29;;;;;;;13.35;9.45;;;;;;;27.68;47.75;100588.22;5013191;28;20097;-59
2022/08/17 01:45:55;;;;;;;13.90;9.38;;;;;;;27.64;47.57;100582.38;5013120;28;20050;-59
2022/08/17 01:48:21;;;;;;;17.60;9.57;;;;;;;27.63;46.72;100582.63;5016720;28;20076;-59
2022/08/17 01:50:49;;;;;;;15.88;9.35;;;;;;;27.63;47.01;100591.72;5015698;28;20041;-60
2022/08/17 01:53:28;;;;;;;12.00;8.40;;;;;;;27.62;47.85;100589.22;4999150;28;20025;-60
2022/08/17 01:56:09;;;;;;;15.48;8.75;;;;;;;27.60;47.62;100585.88;5015598;28;20395;-59
2022/08/17 01:58:35;;;;;;;17.95;9.32;;;;;;;27.56;47.48;100582.78;5015459;28;20033;-60
2022/08/17 02:01:03;;;;;;;11.68;8.05;;;;;;;27.54;47.67;100586.84;5016679;28;20083;-59
2022/08/17 02:03:29;;;;;;;12.77;8.65;;;;;;;27.51;47.20;100588.19;5015540;28;20054;-59
2022/08/17 02:05:55;;;;;;;11.32;7.72;;;;;;;27.50;47.07;100591.19;5016490;28;20030;-59
2022/08/17 02:08:21;;;;;;;11.00;8.20;;;;;;;27.48;47.77;100587.84;5016454;28;20033;-59
2022/08/17 02:10:48;;;;;;;11.90;8.85;;;;;;;27.46;47.66;100590.00;5015365;28;20022;-59
2022/08/17 02:13:14;;;;;;;13.05;9.25;;;;;;;27.43;48.00;100582.22;5016445;28;20030;-59
2022/08/17 02:15:40;;;;;;;10.52;8.90;;;;;;;27.42;47.93;100578.66;5016371;28;20030;-59
2022/08/17 02:18:06;;;;;;;14.13;10.85;;;;;;;27.41;47.15;100581.66;5016625;28;20060;-59
2022/08/17 02:20:31;;;;;;;16.60;10.68;;;;;;;27.35;47.61;100575.19;5016258;28;20135;-59
2022/08/17 02:22:59;;;;;;;13.77;9.75;;;;;;;27.39;47.65;100578.25;4998689;28;20113;-59
2022/08/17 02:25:26;;;;;;;15.40;10.25;;;;;;;27.37;47.81;100574.91;4998612;28;20156;-59
2022/08/17 02:27:51;;;;;;;12.25;9.43;;;;;;;27.35;47.59;100577.09;5014815;28;20072;-59
2022/08/17 02:30:17;;;;;;;14.13;10.10;;;;;;;27.32;47.50;100572.06;5014847;28;20119;-60
2022/08/17 02:32:42;;;;;;;17.08;10.23;;;;;;;27.34;48.01;100569.91;5016014;28;20034;-60
2022/08/17 02:35:08;;;;;;;15.82;9.13;;;;;;;27.32;47.11;100569.31;5014846;28;20113;-59
2022/08/17 02:37:34;;;;;;;16.35;10.07;;;;;;;27.31;47.81;100570.41;5016032;28;20372;-59
2022/08/17 02:40:00;;;;;;;17.92;10.07;;;;;;;27.25;47.88;100560.41;4998544;28;20044;-59
2022/08/17 02:42:32;;;;;;;18.92;9.98;;;;;;;27.28;47.71;100573.63;5015811;28;20379;-59
2022/08/17 02:44:58;;;;;;;;;;;;;;;27.28;47.42;100568.13;5016480;28;20105;-60
2022/08/17 02:47:24;;;;;;;13.52;9.52;;;;;;;27.26;47.09;100578.56;5014584;28;19956;-59
2022/08/17 02:49:49;;;;;;;16.73;8.77;;;;;;;27.25;48.24;100565.91;5015570;28;20040;-59
2022/08/17 02:52:15;;;;;;;13.77;9.27;;;;;;;27.19;47.64;100560.28;5015618;28;20061;-59
2022/08/17 02:54:40;;;;;;;16.55;9.15;;;;;;;27.23;47.37;100568.03;5014450;28;20033;-59
2022/08/17 02:57:05;;;;;;;15.25;9.95;;;;;;;27.21;47.47;100561.94;5014540;28;20446;-60
2022/08/17 02:59:31;;;;;;;15.07;8.95;;;;;;;27.18;47.78;100558.63;5014251;28;20061;-60
2022/08/17 03:01:56;;;;;;;19.17;9.63;;;;;;;27.18;47.53;100561.38;5015368;28;20062;-60
2022/08/17 03:04:21;;;;;;;15.75;10.30;;;;;;;27.17;48.07;100559.69;5015463;28;20112;-59
2022/08/17 03:06:47;;;;;;;15.23;10.00;;;;;;;27.17;48.16;100559.69;5014236;28;20048;-59
2022/08/17 03:09:12;;;;;;;18.25;11.57;;;;;;;27.17;47.79;100558.84;5015341;28;20376;-59
2022/08/17 03:11:38;;;;;;;18.23;12.05;;;;;;;27.16;48.17;100563.50;5015305;28;20030;-59
2022/08/17 03:14:03;;;;;;;21.77;12.75;;;;;;;27.12;47.57;100551.34;5015363;28;20041;-60
2022/08/17 03:16:28;;;;;;;17.40;11.93;;;;;;;27.14;47.59;100560.19;5015359;28;20387;-59
2022/08/17 03:18:54;;;;;;;19.55;11.57;;;;;;;27.15;47.77;100552.75;5015484;28;20109;-59
2022/08/17 03:21:19;;;;;;;18.52;11.73;;;;;;;27.15;47.72;100561.84;5015426;28;20026;-59
2022/08/17 03:23:45;;;;;;;18.05;12.10;;;;;;;27.15;48.46;100563.75;5015010;28;20034;-60
2022/08/17 03:26:10;;;;;;;17.50;11.27;;;;;;;27.14;48.49;100560.19;5015103;28;20057;-59
2022/08/17 03:28:36;;;;;;;16.52;11.70;;;;;;;27.15;47.50;100561.84;5015044;28;20045;-59
2022/08/17 03:31:03;;;;;;;17.65;11.20;;;;;;;27.15;48.47;100556.34;5014111;28;20029;-60
2022/08/17 03:33:28;;;;;;;17.65;10.75;;;;;;;27.15;48.15;100558.25;5014808;28;20041;-59
2022/08/17 03:35:54;;;;;;;15.48;10.32;;;;;;;27.15;47.90;100550.84;5015151;28;20021;-59
2022/08/17 03:38:20;;;;;;;17.92;11.48;;;;;;;27.14;48.25;100560.19;5014794;28;20128;-59
2022/08/17 03:40:46;;;;;;;18.63;11.05;;;;;;;27.15;48.56;100556.34;5013663;28;20487;-59
2022/08/17 03:43:12;;;;;;;18.17;10.75;;;;;;;27.15;48.12;100561.84;5015013;28;20026;-59
2022/08/17 03:56:45;;;;;;;16.77;10.55;;;;;;;27.12;48.84;100587.09;5013589;28;20033;-59
2022/08/17 03:59:16;;;;;;;15.80;11.60;;;;;;;27.10;48.87;100597.50;5014439;28;20022;-59
2022/08/17 04:01:43;;;;;;;18.48;10.63;;;;;;;27.11;48.22;100601.91;5014291;28;20026;-60
2022/08/17 04:04:09;;;;;;;21.35;11.48;;;;;;;27.13;48.75;100616.28;5013165;28;20152;-60
2022/08/17 04:06:34;;;;;;;17.02;11.18;;;;;;;27.12;48.82;100606.34;5013170;28;20029;-59
2022/08/17 04:09:00;;;;;;;18.10;11.95;;;;;;;27.15;48.87;100597.63;5012752;28;20105;-59
2022/08/17 04:11:25;;;;;;;18.70;12.75;;;;;;;27.18;48.56;100610.88;5014313;28;20030;-60
2022/08/17 04:13:51;;;;;;;18.95;13.18;;;;;;;27.23;48.66;100612.06;5014204;28;20533;-59
2022/08/17 04:16:17;;;;;;;20.27;13.73;;;;;;;27.27;48.85;100621.50;5012868;28;20079;-59
2022/08/17 04:18:42;;;;;;;25.27;14.32;;;;;;;27.32;49.15;100621.59;5014093;28;20072;-59
2022/08/17 04:21:08;;;;;;;21.50;14.05;;;;;;;27.35;48.81;100619.22;5014076;28;20033;-59
2022/08/17 04:23:35;;;;;;;24.77;14.77;;;;;;;27.39;48.36;100617.63;5012745;28;20036;-59
2022/08/17 04:26:01;;;;;;;23.50;15.02;;;;;;;27.43;48.61;100620.75;5013941;28;20038;-59
2022/08/17 04:28:26;;;;;;;23.73;16.42;;;;;;;27.46;48.67;100617.53;5014184;28;20030;-60
2022/08/17 04:30:52;;;;;;;23.90;15.27;;;;;;;27.48;48.72;100626.34;5014106;28;20041;-59
2022/08/17 04:33:20;;;;;;;28.58;16.60;;;;;;;27.50;49.02;100622.28;5012458;28;20021;-59
2022/08/17 04:35:51;;;;;;;27.95;15.23;;;;;;;27.50;48.31;100611.28;4996223;28;20395;-59
2022/08/17 04:38:23;;;;;;;21.77;14.73;;;;;;;27.54;48.88;100614.38;5013852;28;20021;-59
2022/08/17 04:43:34;;;;;;;19.80;13.93;;;;;;;27.62;48.84;100617.56;5013816;28;20049;-59
2022/08/17 04:46:04;;;;;;;24.52;14.00;;;;;;;27.64;48.83;100620.91;5012704;28;20057;-59
2022/08/17 04:48:35;;;;;;;21.00;13.35;;;;;;;27.63;48.78;100607.41;5012434;28;20518;-59
2022/08/17 04:51:00;;;;;;;21.40;12.27;;;;;;;27.67;48.15;100614.91;5012509;28;20045;-59
2022/08/17 04:53:26;;;;;;;21.58;12.30;;;;;;;27.71;47.89;100623.53;5012348;28;20060;-59
2022/08/17 04:55:52;;;;;;;16.45;11.93;;;;;;;27.72;48.40;100617.75;5013864;28;20036;-59
2022/08/17 04:58:18;;;;;;;16.10;11.55;;;;;;;27.77;48.13;100627.22;5012500;28;20205;-60
2022/08/17 05:00:44;;;;;;;18.13;10.30;;;;;;;27.75;48.36;100641.19;5012302;28;20519;-60
2022/08/17 05:03:10;;;;;;;14.77;9.07;;;;;;;27.75;47.92;100652.22;4995730;28;20095;-59
2022/08/17 05:05:37;;;;;;;12.95;9.25;;;;;;;27.79;48.34;100650.66;5012408;28;20094;-60
2022/08/17 05:08:05;;;;;;;14.68;8.18;;;;;;;27.82;47.65;100661.19;5012352;28;20026;-59
2022/08/17 05:10:34;;;;;;;12.68;8.73;;;;;;;27.82;47.98;100666.69;5013523;28;20033;-59
2022/08/17 05:13:06;;;;;;;13.43;8.32;;;;;;;27.86;48.05;100667.03;5013595;28;20037;-59
2022/08/17 05:15:32;;;;;;;14.18;7.97;;;;;;;27.87;47.62;100669.53;5013558;28;20105;-59
2022/08/17 05:17:57;;;;;;;9.65;7.28;;;;;;;27.92;46.92;100683.41;5013420;28;20045;-60
2022/08/17 05:20:23;;;;;;;10.13;7.22;;;;;;;27.94;47.14;100683.16;5013796;28;20026;-60
2022/08/17 05:22:51;;;;;;;8.15;6.90;;;;;;;27.96;47.79;100683.75;5017296;28;20049;-59
2022/08/17 05:25:21;;;;;;;11.35;6.75;;;;;;;27.99;47.69;100695.13;5017255;28;20105;-60
2022/08/17 05:27:46;;;;;;;10.82;6.07;;;;;;;28.00;47.35;100680.25;5017231;28;20026;-59
2022/08/17 05:30:12;;;;;;;7.32;6.15;;;;;;;28.05;47.06;100674.88;5016116;28;20368;-60
2022/08/17 05:32:38;;;;;;;9.88;5.97;;;;;;;28.09;47.40;100689.81;5016298;28;20022;-59
2022/08/17 05:35:05;;;;;;;10.23;5.85;;;;;;;28.10;46.84;100671.38;5017109;28;20037;-59
2022/08/17 05:37:30;;;;;;;8.77;5.20;;;;;;;28.14;46.38;100678.88;5017026;28;20026;-60
2022/08/17 05:39:55;;;;;;;8.00;5.65;;;;;;;28.17;46.65;100664.63;5017071;28;20493;-60
2022/08/17 05:42:21;;;;;;;6.30;5.07;;;;;;;28.22;46.43;100664.72;5017011;28;20053;-60
2022/08/17 05:44:46;;;;;;;8.77;5.50;;;;;;;28.24;46.66;100670.81;5016996;28;20030;-60
2022/08/17 05:47:11;;;;;;;7.65;4.97;;;;;;;28.29;45.72;100668.16;5015646;28;20459;-60
2022/08/17 05:49:37;;;;;;;5.97;4.53;;;;;;;28.35;46.75;100679.25;5016819;28;20026;-60
2022/08/17 05:52:02;;;;;;;5.80;4.45;;;;;;;28.38;46.31;100676.00;4999245;28;20034;-60
2022/08/17 05:54:38;;;;;;;8.00;5.65;;;;;;;28.41;45.62;100669.97;5015490;28;20068;-60
2022/08/17 05:57:22;;;;;;;10.10;5.15;;;;;;;28.46;46.15;100670.06;5016960;28;20025;-60
2022/08/17 05:59:47;;;;;;;14.48;4.85;;;;;;;28.48;46.33;100681.66;5016766;28;20045;-60
2022/08/17 06:02:50;;;;;;;9.07;4.93;;;;;;;28.49;46.31;100680.59;5016803;28;20085;-59
2022/08/17 06:05:21;;;;;;;;;;;;;;;28.50;46.27;100682.28;5016950;28;20018;-60
2022/08/17 06:08:05;;;;;;;5.22;4.35;;;;;;;28.51;46.23;100681.16;4999257;28;20028;-60
2022/08/17 06:10:43;;;;;;;8.05;4.38;;;;;;;28.54;45.02;100677.91;5016494;28;20108;-60
2022/08/17 06:13:33;;;;;;;7.78;5.38;;;;;;;28.57;45.49;100667.22;5015254;28;20026;-60
2022/08/17 06:16:07;;;;;;;8.40;5.20;;;;;;;28.63;46.07;100662.66;5016375;28;20435;-60
2022/08/17 06:18:41;;;;;;;7.93;5.07;;;;;;;28.66;45.08;100662.16;5016205;28;20037;-60
2022/08/17 06:21:07;;;;;;;13.77;5.47;;;;;;;28.71;45.99;100654.81;5015225;28;20030;-60
2022/08/17 06:23:36;;;;;;;7.85;5.55;;;;;;;28.74;45.57;100651.53;5014971;28;20376;-60
2022/08/17 06:26:16;;;;;;;12.73;6.07;;;;;;;28.78;44.75;100660.16;5015328;28;20336;-60
2022/08/17 06:28:54;;;;;;;6.82;5.22;;;;;;;28.79;45.08;100657.13;5015014;28;20018;-60
2022/08/17 06:31:27;;;;;;;8.63;5.15;;;;;;;28.82;45.17;100659.38;5015781;28;20038;-59
2022/08/17 06:33:55;;;;;;;7.63;5.05;;;;;;;28.84;44.75;100659.13;5015036;28;20025;-60
2022/08/17 06:36:28;;;;;;;8.27;5.32;;;;;;;28.89;45.71;100657.28;5016142;28;20054;-59
2022/08/17 06:39:09;;;;;;;;;;;;;;;28.93;44.71;100663.13;5016349;28;20026;-59
2022/08/17 06:41:41;;;;;;;10.10;5.45;;;;;;;28.94;44.45;100659.28;5014620;28;20048;-60
2022/08/17 06:44:06;;;;;;;;;;;;;;;28.99;44.43;100661.28;5016101;28;20032;-60
2022/08/17 06:46:50;;;;;;;6.87;5.60;;;;;;;29.01;44.71;100670.16;5015794;28;19909;-60
2022/08/17 06:49:24;;;;;;;7.05;5.00;;;;;;;29.01;45.30;100665.44;5014537;28;20264;-59
2022/08/17 06:52:15;;;;;;;7.97;5.53;;;;;;;29.01;45.29;100668.19;5015898;28;20033;-60
2022/08/17 06:55:01;;;;;;;9.52;5.43;;;;;;;28.98;44.68;100674.22;5015664;28;20109;-60
2022/08/17 06:57:30;;;;;;;10.43;6.03;;;;;;;28.97;44.71;100683.63;5015664;28;20025;-60
2022/08/17 07:00:12;;;;;;;8.27;5.47;;;;;;;29.01;44.70;100690.28;5015500;28;20018;-60
2022/08/17 07:02:47;;;;;;;10.48;5.90;;;;;;;29.05;44.62;100693.38;5015087;28;20499;-59
2022/08/17 07:05:15;;;;;;;10.60;6.55;;;;;;;29.07;44.69;100697.53;5015409;28;20096;-60
2022/08/17 07:08:02;;;;;;;8.80;5.72;;;;;;;29.12;44.47;100705.88;5014245;28;20080;-60
2022/08/17 07:10:42;;;;;;;8.23;5.90;;;;;;;29.17;44.15;100725.31;5014462;28;20032;-60
2022/08/17 07:13:36;;;;;;;9.77;5.47;;;;;;;29.20;44.68;100735.81;5014092;28;20018;-60
2022/08/17 07:16:21;;;;;;;8.95;5.45;;;;;;;29.21;43.71;100737.47;5014046;28;20507;-60
2022/08/17 07:18:49;;;;;;;9.75;6.25;;;;;;;29.21;44.66;100743.00;5014020;28;20025;-60
2022/08/17 07:21:42;;;;;;;9.10;5.47;;;;;;;29.23;43.65;100746.38;5014072;28;20396;-60
2022/08/17 07:24:26;;;;;;;7.68;5.57;;;;;;;29.26;44.17;100740.34;5013863;28;20041;-60
2022/08/17 07:27:12;;;;;;;10.38;5.28;;;;;;;29.30;44.00;100740.69;5014938;28;20022;-60
2022/08/17 07:29:45;;;;;;;10.32;5.40;;;;;;;29.37;43.81;100742.16;5015011;28;20030;-60
2022/08/17 07:32:13;;;;;;;12.35;5.97;;;;;;;29.45;43.46;100738.97;5014816;28;20025;-60
2022/08/17 07:35:09;;;;;;;7.88;6.10;;;;;;;29.57;43.83;100740.75;4997267;28;20495;-60
2022/08/17 07:37:37;;;;;;;7.63;5.90;;;;;;;29.69;43.62;100738.72;5014916;28;20018;-60
2022/08/17 07:40:21;;;;;;;8.57;5.70;;;;;;;29.83;43.45;100740.03;5014807;28;20026;-60
2022/08/17 07:43:01;;;;;;;11.23;6.35;;;;;;;29.95;43.17;100743.50;5014480;28;20022;-60
2022/08/17 07:48:19;;;;;;;13.15;7.20;;;;;;;30.18;42.92;100737.66;5013658;28;20549;-60
2022/08/17 07:50:44;;;;;;;12.13;6.10;;;;;;;30.24;43.00;100741.31;5013316;28;20059;-60
2022/08/17 07:53:19;;;;;;;10.77;6.45;;;;;;;30.25;43.43;100741.06;5014434;28;20038;-60
2022/08/17 07:55:44;;;;;;;8.98;5.53;;;;;;;30.25;42.78;100738.31;5014724;28;20072;-60
2022/08/17 07:58:16;;;;;;;8.70;5.60;;;;;;;30.32;43.05;100738.09;5013646;28;20402;-60
2022/08/17 08:00:41;;;;;;;10.32;5.63;;;;;;;30.44;42.85;100742.41;5014489;28;20036;-60
2022/08/17 08:03:22;;;;;;;8.65;6.05;;;;;;;30.57;42.47;100743.88;5014478;28;20042;-60
2022/08/17 08:05:55;;;;;;;14.07;6.30;;;;;;;30.69;42.57;100743.72;5013215;28;20029;-59
2022/08/17 08:08:43;;;;;;;11.15;6.90;;;;;;;30.71;42.58;100741.53;5014575;28;20025;-60
2022/08/17 08:11:14;;;;;;;11.40;6.50;;;;;;;30.68;42.43;100742.06;5013682;28;20042;-60
2022/08/17 08:13:43;;;;;;;10.15;6.63;;;;;;;30.69;42.60;100744.56;5012947;28;20407;-60
2022/08/17 08:16:23;;;;;;;10.20;6.95;;;;;;;30.67;42.57;100760.59;5012953;28;20041;-60
2022/08/17 08:18:54;;;;;;;12.90;6.13;;;;;;;30.62;42.67;100765.25;5014188;28;20113;-60
2022/08/17 08:21:28;;;;;;;10.68;7.20;;;;;;;30.52;42.28;100772.34;5014134;28;20029;-60
2022/08/17 08:23:56;;;;;;;12.38;6.85;;;;;;;30.45;42.16;100793.84;5012117;28;20480;-60
2022/08/17 08:26:38;;;;;;;10.15;6.78;;;;;;;30.35;42.40;100790.94;5013119;28;20033;-59
2022/08/17 08:29:27;;;;;;;12.55;6.75;;;;;;;30.16;42.09;100770.25;5012869;28;20025;-60
2022/08/17 08:31:56;;;;;;;11.35;7.25;;;;;;;30.18;42.78;100784.66;5012635;28;20494;-60
2022/08/17 08:34:43;;;;;;;10.93;6.85;;;;;;;30.07;42.90;100763.53;5014092;28;20515;-60
2022/08/17 08:38:07;;;;;;;12.05;7.40;;;;;;;29.91;43.43;100770.81;5014104;28;20076;-60
2022/08/17 08:40:51;;;;;;;10.77;7.35;;;;;;;29.76;43.88;100803.72;4956876;28;20502;-60
2022/08/17 08:43:38;;;;;;;11.52;7.32;;;;;;;29.67;43.92;100840.34;5013802;28;20018;-60
2022/08/17 08:46:20;;;;;;;11.00;7.47;;;;;;;29.54;44.09;100843.47;5012557;28;20033;-60
2022/08/17 08:49:08;;;;;;;;;;;;;;;29.37;43.03;100830.50;5013030;28;20487;-59
2022/08/17 08:51:50;;;;;;;20.02;7.82;;;;;;;29.05;44.61;100823.88;5012643;28;20391;-60
2022/08/17 08:54:15;;;;;;;12.57;7.43;;;;;;;28.84;44.77;100819.94;5012557;28;20029;-60
2022/08/17 08:56:51;;;;;;;13.18;8.10;;;;;;;28.67;44.78;100830.09;5013662;28;20080;-59
2022/08/17 08:59:34;;;;;;;10.18;6.90;;;;;;;28.46;45.37;100836.28;5012441;28;20395;-59
2022/08/17 09:02:17;;;;;;;17.83;8.00;;;;;;;28.33;45.66;100847.63;5013393;28;20030;-59
2022/08/17 09:04:48;;;;;;;13.65;7.25;;;;;;;28.20;46.59;100837.69;5012245;28;20084;-59
2022/08/17 09:07:33;;;;;;;15.80;7.80;;;;;;;28.14;46.73;100830.41;5013471;28;20059;-59
2022/08/17 09:10:13;;;;;;;13.55;8.05;;;;;;;28.11;47.13;100830.09;5012496;28;20022;-59
2022/08/17 09:12:52;;;;;;;14.48;8.13;;;;;;;28.08;46.47;100831.41;5012234;28;20072;-59
2022/08/17 09:15:24;;;;;;;12.88;7.88;;;;;;;28.06;47.15;100836.31;5013388;28;20041;-59
2022/08/17 09:17:52;;;;;;;12.65;7.28;;;;;;;28.13;46.34;100848.03;5012335;28;20515;-59
2022/08/17 09:20:25;;;;;;;14.82;7.53;;;;;;;28.21;46.40;100853.16;5013376;28;20026;-59
2022/08/17 09:23:19;;;;;;;13.35;8.30;;;;;;;28.33;47.14;100839.34;5013515;28;20034;-59
2022/08/17 09:25:56;;;;;;;14.80;9.20;;;;;;;28.45;46.20;100840.13;5001754;28;20038;-59
2022/08/17 09:28:27;;;;;;;13.80;8.02;;;;;;;28.54;47.26;100835.06;5012020;28;20479;-59
2022/08/17 09:31:02;;;;;;;12.00;7.38;;;;;;;28.65;46.76;100831.44;5012039;28;20075;-59
2022/08/17 09:33:30;;;;;;;11.73;7.57;;;;;;;28.74;46.38;100824.44;5012044;28;20030;-59
2022/08/17 09:36:00;;;;;;;12.93;8.18;;;;;;;28.83;47.30;100834.00;5012110;28;20487;-59
2022/08/17 09:38:32;;;;;;;11.57;8.18;;;;;;;28.89;46.32;100838.50;5012194;28;20075;-59
2022/08/17 09:41:14;;;;;;;16.83;8.90;;;;;;;28.98;46.94;100831.47;5012088;28;20026;-59
2022/08/17 09:43:45;;;;;;;13.30;7.97;;;;;;;29.09;46.79;100827.81;5012041;28;20061;-59
2022/08/17 09:46:29;;;;;;;9.95;7.03;;;;;;;29.24;46.39;100830.84;5011863;28;20041;-59
2022/08/17 09:49:00;;;;;;;12.45;8.05;;;;;;;29.37;46.31;100836.00;5013102;28;20033;-59
2022/08/17 09:51:38;;;;;;;9.77;6.95;;;;;;;29.43;46.49;100850.72;5013049;28;20026;-59
2022/08/17 09:54:12;;;;;;;10.07;7.30;;;;;;;29.42;45.71;100846.31;5013256;28;20101;-59
2022/08/17 09:56:51;;;;;;;14.30;7.45;;;;;;;29.42;46.37;100844.41;5011850;28;20029;-59
2022/08/17 09:59:23;;;;;;;12.48;7.18;;;;;;;29.45;46.00;100827.31;5011828;28;20033;-59
2022/08/17 10:02:26;;;;;;;9.77;7.15;;;;;;;29.54;46.39;100824.13;5011674;28;20030;-59
2022/08/17 10:05:04;;;;;;;9.90;6.97;;;;;;;29.58;45.78;100825.28;5012200;28;20045;-59
2022/08/17 10:07:39;;;;;;;13.55;7.50;;;;;;;29.64;46.21;100824.28;5013712;28;20029;-60
2022/08/17 10:10:18;;;;;;;12.80;7.75;;;;;;;29.63;45.55;100828.13;5015520;28;20029;-60
2022/08/17 10:12:58;;;;;;;10.07;7.05;;;;;;;29.70;45.86;100834.31;5016732;28;20029;-59
2022/08/17 10:15:41;;;;;;;13.55;8.25;;;;;;;29.73;46.03;100828.28;5015284;28;20022;-59
2022/08/17 10:18:16;;;;;;;15.32;7.22;;;;;;;29.74;45.58;100825.25;5016443;28;20060;-59
2022/08/17 10:20:46;;;;;;;16.60;7.47;;;;;;;29.76;45.42;100833.28;5016323;28;20399;-60
2022/08/17 10:26:18;;;;;;;8.60;6.65;;;;;;;29.67;45.91;100845.84;5015275;28;20506;-59
2022/08/17 10:29:14;;;;;;;10.30;7.00;;;;;;;29.61;45.91;100852.41;5015015;28;20022;-59
2022/08/17 10:32:10;;;;;;;15.07;7.78;;;;;;;29.55;46.25;100853.41;5016117;28;20030;-59
2022/08/17 10:34:52;;;;;;;10.48;7.28;;;;;;;29.49;46.12;100851.66;5015598;28;20514;-59
2022/08/17 10:37:24;;;;;;;13.20;7.10;;;;;;;29.41;46.29;100853.75;5015171;28;20036;-59
2022/08/17 10:40:14;;;;;;;12.45;5.97;;;;;;;29.32;46.05;100854.41;5016057;28;20029;-59
2022/08/17 10:42:47;;;;;;;12.55;6.95;;;;;;;29.22;46.30;100851.50;5016026;28;20029;-59
2022/08/17 10:45:25;;;;;;;18.83;7.38;;;;;;;29.17;46.25;100856.91;5015893;28;20034;-59
2022/08/17 10:48:05;;;;;;;13.13;7.45;;;;;;;29.12;46.96;100854.09;4995106;28;20037;-59
2022/08/17 10:50:57;;;;;;;8.55;6.45;;;;;;;29.05;45.89;100861.66;4996500;28;20516;-59
2022/08/17 10:53:31;;;;;;;10.07;6.80;;;;;;;28.94;46.32;100849.63;4996043;28;20023;-59
2022/08/17 10:56:20;;;;;;;10.98;6.85;;;;;;;28.86;46.47;100845.38;4996156;28;20073;-59
2022/08/17 10:58:56;;;;;;;8.77;6.65;;;;;;;28.87;46.59;100840.66;4995152;28;20048;-59
2022/08/17 11:01:42;;;;;;;8.70;6.85;;;;;;;28.87;46.85;100830.47;4996070;28;20072;-60
2022/08/17 11:04:16;;;;;;;11.55;7.18;;;;;;;28.89;46.41;100824.72;5005807;28;20070;-59
2022/08/17 11:07:03;;;;;;;13.43;7.88;;;;;;;28.89;46.56;100833.81;5015767;28;20113;-59
2022/08/17 11:10:06;;;;;;;10.88;7.25;;;;;;;28.92;46.53;100846.28;4995881;28;20456;-60
2022/08/17 11:12:37;;;;;;;11.00;7.45;;;;;;;28.93;46.82;100847.09;4995674;28;20098;-59
2022/08/17 11:15:06;;;;;;;14.63;8.35;;;;;;;28.97;46.72;100846.38;4994898;28;20038;-59
2022/08/17 11:17:49;;;;;;;13.55;8.38;;;;;;;29.01;47.42;100850.28;4995444;28;20023;-59
2022/08/17 11:20:37;;;;;;;13.18;8.25;;;;;;;29.03;47.48;100850.06;4995321;28;20026;-59
2022/08/17 11:23:02;;;;;;;11.95;7.93;;;;;;;29.04;46.55;100852.56;4995514;28;20387;-59
2022/08/17 11:25:51;;;;;;;12.23;8.15;;;;;;;29.07;46.60;100852.06;4995493;28;20117;-59
2022/08/17 11:28:18;;;;;;;13.20;8.48;;;;;;;29.09;46.84;100849.88;4994406;28;20049;-59
2022/08/17 11:30:50;;;;;;;13.35;8.75;;;;;;;29.10;47.02;100851.56;4995451;28;20022;-59
2022/08/17 11:33:27;;;;;;;12.97;8.80;;;;;;;29.17;47.31;100860.53;4995500;28;20030;-59
2022/08/17 11:36:02;;;;;;;14.43;7.97;;;;;;;29.19;47.61;100863.88;4995308;28;20030;-59
2022/08/17 11:38:59;;;;;;;11.95;8.20;;;;;;;29.25;46.73;100871.19;4994177;28;20030;-59
2022/08/17 11:41:37;;;;;;;13.43;9.02;;;;;;;29.23;47.18;100870.56;4995302;28;20022;-59
2022/08/17 11:44:20;;;;;;;13.38;9.40;;;;;;;29.23;46.77;100867.00;4995139;28;20369;-59
2022/08/17 11:52:48;;;;;;;14.90;10.20;;;;;;;29.04;47.36;100887.56;4994924;28;20053;-59
2022/08/17 11:55:26;;;;;;;14.60;9.57;;;;;;;28.98;47.16;100889.41;4993705;28;20045;-59
2022/08/17 11:58:02;;;;;;;14.60;9.68;;;;;;;28.94;47.43;100896.53;4994941;28;20026;-59
2022/08/17 12:00:50;;;;;;;13.02;9.60;;;;;;;28.91;47.65;100897.03;4994851;28;20443;-59
2022/08/17 12:03:25;;;;;;;17.88;10.30;;;;;;;28.89;47.25;100904.72;4995000;28;20126;-59
2022/08/17 12:06:19;;;;;;;16.30;9.60;;;;;;;28.87;47.28;100912.38;4994772;28;20034;-59
2022/08/17 12:08:54;;;;;;;14.57;9.35;;;;;;;28.83;47.04;100906.53;4990829;28;20514;-59
2022/08/17 12:11:38;;;;;;;15.35;9.18;;;;;;;28.83;48.09;100912.06;4994718;28;20030;-59